createdAt,value
2022-10-05T00:01:34.605Z,3.15
2022-10-05T00:04:09.170Z,2.55
2022-10-05T00:06:38.799Z,2.25
2022-10-05T00:09:13.579Z,2.47
2022-10-05T00:11:45.689Z,2.00
2022-10-05T00:14:19.561Z,2.50
2022-10-05T00:16:49.836Z,2.47
2022-10-05T00:19:23.211Z,2.22
2022-10-05T00:21:52.753Z,3.08
2022-10-05T00:24:23.147Z,2.65
2022-10-05T00:26:58.021Z,2.38
2022-10-05T00:29:27.868Z,2.67
2022-10-05T00:31:57.451Z,2.20
2022-10-05T00:34:28.199Z,2.03
2022-10-05T00:36:57.669Z,2.72
2022-10-05T00:39:27.131Z,2.50
2022-10-05T00:42:07.597Z,2.30
2022-10-05T00:44:40.255Z,2.90
2022-10-05T00:47:14.380Z,2.40
2022-10-05T00:50:08.125Z,2.75
2022-10-05T00:52:41.421Z,2.85
2022-10-05T00:55:14.012Z,2.03
2022-10-05T00:57:50.996Z,2.17
2022-10-05T01:00:21.486Z,2.13
2022-10-05T01:02:54.983Z,2.70
2022-10-05T01:05:29.990Z,1.95
2022-10-05T01:08:01.798Z,2.25
2022-10-05T01:10:35.246Z,2.65
2022-10-05T01:13:12.230Z,1.90
2022-10-05T01:15:44.629Z,1.90
2022-10-05T01:18:16.465Z,2.30
2022-10-05T01:20:50.293Z,1.98
2022-10-05T01:23:40.761Z,2.45
2022-10-05T01:26:25.085Z,2.00
2022-10-05T01:29:00.571Z,2.50
2022-10-05T01:31:34.152Z,2.88
2022-10-05T01:34:11.475Z,3.33
2022-10-05T01:36:45.381Z,3.00
2022-10-05T01:39:18.424Z,3.17
2022-10-05T01:41:55.283Z,3.40
2022-10-05T01:44:29.596Z,3.65
2022-10-05T01:47:03.732Z,3.47
2022-10-05T01:49:37.628Z,2.83
2022-10-05T01:52:18.662Z,2.90
2022-10-05T01:54:55.979Z,2.80
2022-10-05T01:57:31.103Z,2.28
2022-10-05T02:00:07.735Z,2.50
2022-10-05T02:02:48.940Z,2.60
2022-10-05T02:05:21.073Z,2.53
2022-10-05T02:07:52.464Z,2.88
2022-10-05T02:10:25.546Z,2.30
2022-10-05T02:12:57.439Z,2.58
2022-10-05T02:15:32.664Z,2.58
2022-10-05T02:18:05.523Z,2.42
2022-10-05T02:20:37.425Z,2.10
2022-10-05T02:23:09.172Z,2.47
2022-10-05T02:25:40.472Z,1.98
2022-10-05T02:28:14.309Z,2.72
2022-10-05T02:30:49.495Z,1.80
2022-10-05T02:33:21.864Z,2.15
2022-10-05T02:35:51.416Z,2.60
2022-10-05T02:38:27.628Z,2.50
2022-10-05T02:41:04.331Z,2.33
2022-10-05T02:43:40.405Z,1.92
2022-10-05T02:46:20.670Z,1.63
2022-10-05T02:48:54.684Z,2.05
2022-10-05T02:51:27.032Z,1.90
2022-10-05T02:54:02.018Z,1.90
2022-10-05T02:56:33.824Z,2.38
2022-10-05T02:59:07.174Z,2.35
2022-10-05T03:01:42.654Z,2.50
2022-10-05T03:04:18.022Z,2.95
2022-10-05T03:06:50.520Z,2.28
2022-10-05T03:09:22.203Z,2.00
2022-10-05T03:11:56.629Z,2.30
2022-10-05T03:14:29.640Z,1.95
2022-10-05T03:17:09.280Z,2.20
2022-10-05T03:19:52.871Z,2.40
2022-10-05T03:22:27.420Z,1.92
2022-10-05T03:25:04.730Z,2.10
2022-10-05T03:27:40.229Z,2.13
2022-10-05T03:30:14.146Z,2.60
2022-10-05T03:32:53.821Z,2.50
2022-10-05T03:35:26.291Z,2.13
2022-10-05T03:37:59.280Z,2.03
2022-10-05T03:40:33.031Z,2.72
2022-10-05T03:43:09.212Z,2.67
2022-10-05T03:45:41.536Z,2.75
2022-10-05T03:48:16.025Z,2.45
2022-10-05T03:50:48.079Z,2.38
2022-10-05T03:53:19.827Z,2.20
2022-10-05T03:55:53.199Z,2.65
2022-10-05T03:58:24.370Z,2.47
2022-10-05T04:00:56.528Z,2.40
2022-10-05T04:03:32.822Z,2.83
2022-10-05T04:06:05.856Z,2.72
2022-10-05T04:08:38.093Z,2.63
2022-10-05T04:11:11.998Z,3.13
2022-10-05T04:13:45.269Z,2.90
2022-10-05T04:16:16.079Z,2.70
2022-10-05T04:18:51.571Z,3.17
2022-10-05T04:21:24.071Z,2.65
2022-10-05T04:24:01.406Z,1.83
2022-10-05T04:26:34.935Z,1.80
2022-10-05T04:29:08.519Z,2.40
2022-10-05T04:31:44.224Z,2.05
2022-10-05T04:34:20.977Z,2.30
2022-10-05T04:36:57.448Z,2.00
2022-10-05T04:39:33.370Z,2.42
2022-10-05T04:42:09.975Z,2.72
2022-10-05T04:45:01.055Z,2.00
2022-10-05T04:47:39.477Z,2.45
2022-10-05T04:50:20.702Z,2.70
2022-10-05T04:53:05.045Z,2.72
2022-10-05T04:55:37.894Z,2.15
2022-10-05T04:58:12.728Z,2.75
2022-10-05T05:00:49.382Z,2.50
2022-10-05T05:03:34.791Z,2.13
2022-10-05T05:06:17.024Z,3.13
2022-10-05T05:08:58.879Z,3.47
2022-10-05T05:11:31.743Z,2.88
2022-10-05T05:14:26.756Z,2.55
2022-10-05T05:17:01.484Z,2.60
2022-10-05T05:19:37.487Z,2.78
2022-10-05T05:22:13.002Z,2.90
2022-10-05T05:24:49.436Z,2.55
2022-10-05T05:27:34.193Z,2.70
2022-10-05T05:30:05.900Z,2.80
2022-10-05T05:32:42.741Z,3.35
2022-10-05T05:35:21.549Z,2.88
2022-10-05T05:37:56.627Z,2.80
2022-10-05T05:40:28.036Z,3.10
2022-10-05T05:43:00.854Z,3.00
2022-10-05T05:45:36.753Z,3.05
2022-10-05T05:48:11.857Z,3.13
2022-10-05T05:50:45.127Z,3.35
2022-10-05T05:53:20.708Z,3.50
2022-10-05T05:55:52.772Z,3.45
2022-10-05T05:58:24.859Z,3.60
2022-10-05T06:00:56.918Z,3.25
2022-10-05T06:03:28.881Z,3.42
2022-10-05T06:06:00.788Z,3.65
2022-10-05T06:08:37.026Z,3.35
2022-10-05T06:11:17.338Z,2.97
2022-10-05T06:13:47.699Z,3.78
2022-10-05T06:16:22.196Z,3.08
2022-10-05T06:18:56.774Z,3.35
2022-10-05T06:21:29.538Z,3.15
2022-10-05T06:24:03.903Z,3.47
2022-10-05T06:26:37.196Z,3.90
2022-10-05T06:29:08.243Z,3.17
2022-10-05T06:31:44.602Z,3.33
2022-10-05T06:34:23.393Z,3.25
2022-10-05T06:36:54.360Z,3.33
2022-10-05T06:39:40.960Z,2.65
2022-10-05T06:42:20.176Z,2.53
2022-10-05T06:45:17.346Z,2.13
2022-10-05T06:48:00.404Z,2.53
2022-10-05T06:51:12.949Z,2.45
2022-10-05T06:54:07.273Z,2.88
2022-10-05T06:56:43.939Z,2.75
2022-10-05T06:59:17.197Z,3.10
2022-10-05T07:01:51.736Z,3.10
2022-10-05T07:04:31.272Z,2.83
2022-10-05T07:07:04.884Z,2.97
2022-10-05T07:09:38.540Z,3.10
2022-10-05T07:12:25.629Z,2.72
2022-10-05T07:15:01.146Z,2.67
2022-10-05T07:17:37.955Z,3.70
2022-10-05T07:20:14.127Z,2.92
2022-10-05T07:22:58.284Z,3.13
2022-10-05T07:25:31.691Z,3.30
2022-10-05T07:28:08.425Z,3.53
2022-10-05T07:30:43.071Z,3.08
2022-10-05T07:33:16.362Z,3.78
2022-10-05T07:36:03.180Z,3.70
2022-10-05T07:38:35.395Z,3.40
2022-10-05T07:41:07.611Z,3.15
2022-10-05T07:44:01.549Z,3.42
2022-10-05T07:46:41.430Z,3.03
2022-10-05T07:49:15.463Z,3.05
2022-10-05T07:51:47.912Z,3.72
2022-10-05T07:54:21.444Z,2.88
2022-10-05T07:56:52.642Z,3.00
2022-10-05T07:59:29.508Z,3.13
2022-10-05T08:02:06.490Z,3.90
2022-10-05T08:04:41.878Z,3.50
2022-10-05T08:07:15.837Z,3.75
2022-10-05T08:09:48.461Z,4.05
2022-10-05T08:12:22.910Z,3.13
2022-10-05T08:14:59.447Z,3.72
2022-10-05T08:17:32.410Z,3.28
2022-10-05T08:20:07.469Z,3.92
2022-10-05T08:22:44.331Z,3.33
2022-10-05T08:25:18.234Z,4.50
2022-10-05T08:27:52.906Z,3.67
2022-10-05T08:30:25.615Z,3.38
2022-10-05T08:32:58.094Z,3.20
2022-10-05T08:35:31.995Z,3.67
2022-10-05T08:38:01.729Z,3.08
2022-10-05T08:40:42.082Z,3.85
2022-10-05T08:43:23.991Z,4.60
2022-10-05T08:46:01.021Z,3.95
2022-10-05T08:48:48.189Z,4.22
2022-10-05T08:51:44.803Z,3.20
2022-10-05T08:54:29.417Z,3.75
2022-10-05T08:57:06.993Z,4.28
2022-10-05T08:59:50.893Z,3.90
2022-10-05T09:02:28.955Z,4.18
2022-10-05T09:05:05.797Z,3.22
2022-10-05T09:07:45.679Z,3.47
2022-10-05T09:10:30.946Z,4.10
2022-10-05T09:13:13.707Z,4.22
2022-10-05T09:15:56.040Z,3.58
2022-10-05T09:18:46.906Z,3.72
2022-10-05T09:21:21.194Z,3.38
2022-10-05T09:23:57.849Z,3.38
2022-10-05T09:26:45.438Z,3.33
2022-10-05T09:29:29.946Z,3.65
2022-10-05T09:32:11.772Z,3.55
2022-10-05T09:34:56.960Z,3.42
2022-10-05T09:37:41.335Z,3.40
2022-10-05T09:40:31.652Z,3.20
2022-10-05T09:43:06.431Z,2.95
2022-10-05T09:45:53.443Z,3.78
2022-10-05T09:48:42.219Z,3.30
2022-10-05T09:51:20.061Z,2.78
2022-10-05T09:53:57.195Z,3.22
2022-10-05T09:56:46.370Z,3.63
2022-10-05T09:59:37.277Z,3.13
2022-10-05T10:02:39.144Z,3.00
2022-10-05T10:05:13.650Z,3.10
2022-10-05T10:07:55.000Z,3.15
2022-10-05T10:10:43.244Z,3.10
2022-10-05T10:13:19.765Z,2.75
2022-10-05T10:16:04.208Z,3.00
2022-10-05T10:18:49.654Z,3.40
2022-10-05T10:21:34.000Z,3.40
2022-10-05T10:24:24.338Z,2.85
2022-10-05T10:27:01.178Z,2.97
2022-10-05T10:29:36.860Z,2.85
2022-10-05T10:32:13.509Z,1.92
2022-10-05T10:34:56.901Z,3.30
2022-10-05T10:37:42.451Z,2.85
2022-10-05T10:40:28.736Z,2.80
2022-10-05T10:43:18.151Z,3.10
2022-10-05T10:45:51.671Z,2.63
2022-10-05T10:48:36.056Z,2.42
2022-10-05T10:51:20.240Z,2.60
2022-10-05T10:54:03.734Z,2.53
2022-10-05T10:56:48.864Z,1.92
2022-10-05T10:59:33.522Z,2.15
2022-10-05T11:02:17.436Z,2.65
2022-10-05T11:05:04.971Z,3.20
2022-10-05T11:07:55.311Z,3.03
2022-10-05T11:10:33.499Z,2.65
2022-10-05T11:13:24.852Z,2.60
2022-10-05T11:16:03.555Z,2.70
2022-10-05T11:18:41.922Z,2.65
2022-10-05T11:21:26.410Z,2.70
2022-10-05T11:24:16.778Z,2.90
2022-10-05T11:26:58.051Z,2.78
2022-10-05T11:29:44.348Z,2.75
2022-10-05T11:32:23.739Z,3.03
2022-10-05T11:35:03.617Z,2.60
2022-10-05T11:37:54.032Z,2.58
2022-10-05T11:40:33.308Z,2.67
2022-10-05T11:43:13.781Z,1.88
2022-10-05T11:45:49.208Z,2.40
2022-10-05T11:48:25.742Z,2.30
2022-10-05T11:51:06.973Z,2.45
2022-10-05T11:53:39.199Z,2.10
2022-10-05T11:56:10.881Z,2.25
2022-10-05T11:58:44.640Z,2.33
2022-10-05T12:01:17.216Z,2.17
2022-10-05T12:03:52.133Z,2.17
2022-10-05T12:06:29.603Z,2.17
2022-10-05T12:09:04.751Z,1.90
2022-10-05T12:11:57.861Z,1.98
2022-10-05T12:14:33.578Z,2.28
2022-10-05T12:17:07.704Z,2.47
2022-10-05T12:19:41.146Z,2.20
2022-10-05T12:22:17.892Z,1.73
2022-10-05T12:25:04.056Z,2.10
2022-10-05T12:27:36.825Z,2.25
2022-10-05T12:30:09.610Z,2.17
2022-10-05T12:32:41.527Z,2.00
2022-10-05T12:35:30.050Z,2.22
2022-10-05T12:38:13.640Z,1.65
2022-10-05T12:40:47.965Z,2.28
2022-10-05T12:43:21.912Z,2.45
2022-10-05T12:46:02.027Z,1.90
2022-10-05T12:48:38.197Z,1.92
2022-10-05T12:51:09.945Z,1.70
2022-10-05T12:53:48.665Z,2.03
2022-10-05T12:56:23.962Z,1.90
2022-10-05T12:58:58.996Z,2.25
2022-10-05T13:01:31.600Z,1.83
2022-10-05T13:04:28.219Z,1.60
2022-10-05T13:07:08.069Z,1.65
2022-10-05T13:09:42.917Z,1.45
2022-10-05T13:12:18.028Z,1.70
2022-10-05T13:14:56.200Z,1.60
2022-10-05T13:17:30.518Z,1.63
2022-10-05T13:20:03.767Z,1.63
2022-10-05T13:22:37.255Z,1.60
2022-10-05T13:25:17.814Z,1.23
2022-10-05T13:27:51.075Z,1.67
2022-10-05T13:30:21.758Z,1.35
2022-10-05T13:32:56.038Z,1.58
2022-10-05T13:35:38.139Z,1.55
2022-10-05T13:38:12.870Z,1.50
2022-10-05T13:40:49.422Z,1.73
2022-10-05T13:43:24.385Z,1.33
2022-10-05T13:45:57.417Z,1.88
2022-10-05T13:48:39.670Z,1.35
2022-10-05T13:51:12.474Z,1.50
2022-10-05T13:53:45.644Z,1.20
2022-10-05T13:56:20.077Z,1.80
2022-10-05T13:58:54.291Z,2.10
2022-10-05T14:01:28.312Z,1.83
2022-10-05T14:04:16.358Z,1.63
2022-10-05T14:06:46.147Z,1.23
2022-10-05T14:09:16.790Z,1.40
2022-10-05T14:12:09.566Z,1.52
2022-10-05T14:14:45.860Z,1.60
2022-10-05T14:17:17.570Z,1.23
2022-10-05T14:19:52.001Z,1.50
2022-10-05T14:22:24.994Z,1.60
2022-10-05T14:24:57.035Z,1.75
2022-10-05T14:27:30.449Z,1.58
2022-10-05T14:30:01.102Z,1.45
2022-10-05T14:32:33.614Z,1.20
2022-10-05T14:35:08.817Z,1.77
2022-10-05T14:37:46.077Z,1.70
2022-10-05T14:40:25.908Z,1.60
2022-10-05T14:42:58.639Z,1.30
2022-10-05T14:45:30.090Z,1.00
2022-10-05T14:48:08.444Z,1.77
2022-10-05T14:50:50.928Z,1.50
2022-10-05T14:53:21.634Z,1.20
2022-10-05T14:56:12.036Z,1.10
2022-10-05T14:59:05.981Z,1.38
2022-10-05T15:01:42.184Z,1.48
2022-10-05T15:04:20.638Z,1.27
2022-10-05T15:06:55.504Z,1.58
2022-10-05T15:09:44.044Z,1.20
2022-10-05T15:12:16.227Z,1.27
2022-10-05T15:14:47.532Z,1.85
2022-10-05T15:17:21.094Z,1.30
2022-10-05T15:19:56.602Z,1.45
2022-10-05T15:22:31.775Z,1.50
2022-10-05T15:25:08.422Z,0.98
2022-10-05T15:27:42.237Z,1.00
2022-10-05T15:30:14.091Z,1.73
2022-10-05T15:32:59.287Z,1.40
2022-10-05T15:35:54.356Z,1.05
2022-10-05T15:38:25.934Z,1.75
2022-10-05T15:41:01.261Z,0.93
2022-10-05T15:43:36.110Z,1.35
2022-10-05T15:46:10.584Z,1.52
2022-10-05T15:48:48.442Z,1.50
2022-10-05T15:51:25.410Z,1.80
2022-10-05T15:54:17.579Z,1.63
2022-10-05T15:56:51.744Z,1.40
2022-10-05T15:59:26.872Z,1.60
2022-10-05T16:02:00.919Z,1.77
2022-10-05T16:04:41.464Z,1.35
2022-10-05T16:07:27.378Z,1.98
2022-10-05T16:09:59.604Z,1.40
2022-10-05T16:12:33.646Z,2.22
2022-10-05T16:15:07.288Z,1.40
2022-10-05T16:17:43.841Z,2.42
2022-10-05T16:20:24.162Z,1.73
2022-10-05T16:22:59.808Z,2.10
2022-10-05T16:25:33.409Z,2.05
2022-10-05T16:28:08.342Z,1.63
2022-10-05T16:30:45.213Z,1.65
2022-10-05T16:33:19.296Z,1.58
2022-10-05T16:35:55.375Z,1.40
2022-10-05T16:38:30.131Z,1.63
2022-10-05T16:41:05.003Z,1.52
2022-10-05T16:43:41.802Z,1.70
2022-10-05T16:46:15.656Z,1.77
2022-10-05T16:48:51.087Z,2.25
2022-10-05T16:51:29.414Z,2.00
2022-10-05T16:54:02.235Z,2.00
2022-10-05T16:56:34.286Z,2.00
2022-10-05T16:59:11.262Z,1.80
2022-10-05T17:01:47.378Z,1.70
2022-10-05T17:04:23.756Z,1.90
2022-10-05T17:07:13.457Z,1.75
2022-10-05T17:09:58.676Z,2.00
2022-10-05T17:12:36.663Z,1.88
2022-10-05T17:15:12.053Z,2.08
2022-10-05T17:17:49.084Z,1.33
2022-10-05T17:20:23.922Z,2.45
2022-10-05T17:22:59.197Z,2.20
2022-10-05T17:25:33.719Z,1.85
2022-10-05T17:28:19.165Z,2.17
2022-10-05T17:30:53.851Z,2.13
2022-10-05T17:33:25.153Z,1.92
2022-10-05T17:35:58.334Z,2.33
2022-10-05T17:38:42.625Z,2.28
2022-10-05T17:41:18.687Z,2.35
2022-10-05T17:44:03.142Z,2.70
2022-10-05T17:46:45.704Z,2.40
2022-10-05T17:49:23.005Z,1.52
2022-10-05T17:52:11.910Z,2.05
2022-10-05T17:55:20.521Z,2.00
2022-10-05T17:57:52.660Z,1.90
2022-10-05T18:00:40.342Z,2.17
2022-10-05T18:03:24.838Z,2.25
2022-10-05T18:06:24.657Z,1.85
2022-10-05T18:09:14.349Z,2.05
2022-10-05T18:11:44.419Z,1.73
2022-10-05T18:14:23.288Z,2.13
2022-10-05T18:16:59.819Z,2.03
2022-10-05T18:19:31.563Z,1.70
2022-10-05T18:22:06.194Z,2.60
2022-10-05T18:25:03.634Z,1.70
2022-10-05T18:27:56.017Z,1.70
2022-10-05T18:30:29.992Z,1.38
2022-10-05T18:33:10.530Z,1.98
2022-10-05T18:35:44.867Z,1.65
2022-10-05T18:38:23.287Z,2.72
2022-10-05T18:40:57.430Z,1.67
2022-10-05T18:43:30.418Z,2.75
2022-10-05T18:46:22.132Z,2.50
2022-10-05T18:48:58.794Z,2.53
2022-10-05T18:51:33.873Z,2.28
2022-10-05T18:54:14.626Z,2.50
2022-10-05T18:56:46.577Z,2.42
2022-10-05T18:59:26.388Z,2.72
2022-10-05T19:02:05.691Z,3.28
2022-10-05T19:04:39.679Z,2.92
2022-10-05T19:07:13.879Z,3.20
2022-10-05T19:09:50.385Z,2.50
2022-10-05T19:12:25.991Z,3.30
2022-10-05T19:14:58.449Z,2.72
2022-10-05T19:17:41.033Z,2.40
2022-10-05T19:20:17.541Z,2.38
2022-10-05T19:22:55.858Z,2.17
2022-10-05T19:25:34.428Z,3.22
2022-10-05T19:28:10.301Z,2.35
2022-10-05T19:30:47.705Z,2.78
2022-10-05T19:33:26.427Z,2.40
2022-10-05T19:36:01.714Z,2.95
2022-10-05T19:38:34.382Z,2.60
2022-10-05T19:41:08.495Z,2.47
2022-10-05T19:43:43.608Z,2.92
2022-10-05T19:46:19.348Z,2.40
2022-10-05T19:48:54.526Z,2.63
2022-10-05T19:51:29.497Z,3.08
2022-10-05T19:54:00.298Z,2.58
2022-10-05T19:56:31.091Z,2.70
2022-10-05T19:59:01.164Z,2.38
2022-10-05T20:01:31.788Z,3.08
2022-10-05T20:04:05.178Z,2.30
2022-10-05T20:06:34.695Z,2.25
2022-10-05T20:09:20.612Z,3.13
2022-10-05T20:11:53.661Z,2.60
2022-10-05T20:14:24.024Z,2.67
2022-10-05T20:17:20.774Z,2.53
2022-10-05T20:20:05.324Z,2.85
2022-10-05T20:22:35.697Z,3.33
2022-10-05T20:25:06.719Z,2.75
2022-10-05T20:27:55.610Z,2.92
2022-10-05T20:30:25.953Z,2.95
2022-10-05T20:32:57.625Z,3.65
2022-10-05T20:35:31.013Z,3.30
2022-10-05T20:38:01.078Z,3.47
2022-10-05T20:40:30.728Z,3.85
2022-10-05T20:43:00.648Z,3.50
2022-10-05T20:45:30.246Z,3.75
2022-10-05T20:47:59.735Z,3.20
2022-10-05T20:50:32.892Z,2.70
2022-10-05T20:53:02.463Z,3.80
2022-10-05T20:55:31.994Z,3.00
2022-10-05T20:58:01.495Z,3.28
2022-10-05T21:00:52.249Z,3.03
2022-10-05T21:03:21.869Z,3.25
2022-10-05T21:05:53.936Z,3.50
2022-10-05T21:08:23.444Z,3.63
2022-10-05T21:10:52.934Z,3.40
2022-10-05T21:13:22.500Z,3.67
2022-10-05T21:15:52.001Z,3.42
2022-10-05T21:18:21.490Z,3.45
2022-10-05T21:20:50.935Z,4.38
2022-10-05T21:23:23.073Z,4.22
2022-10-05T21:25:53.141Z,4.03
2022-10-05T21:28:22.641Z,3.42
2022-10-05T21:30:52.144Z,3.35
2022-10-05T21:33:21.790Z,4.07
2022-10-05T21:35:51.233Z,3.10
2022-10-05T21:38:23.450Z,3.83
2022-10-05T21:40:52.942Z,3.22
2022-10-05T21:43:22.652Z,4.35
2022-10-05T21:45:52.242Z,3.58
2022-10-05T21:48:21.848Z,3.92
2022-10-05T21:50:51.421Z,3.30
2022-10-05T21:53:25.509Z,3.35
2022-10-05T21:55:56.271Z,3.58
2022-10-05T21:58:30.122Z,3.08
2022-10-05T22:00:59.907Z,3.63
2022-10-05T22:03:29.397Z,3.55
2022-10-05T22:05:59.047Z,4.13
2022-10-05T22:08:33.010Z,3.85
2022-10-05T22:11:03.451Z,3.45
2022-10-05T22:13:43.035Z,4.13
2022-10-05T22:16:12.862Z,3.38
2022-10-05T22:18:42.638Z,4.50
2022-10-05T22:21:14.056Z,4.20
2022-10-05T22:23:47.750Z,3.28
2022-10-05T22:26:18.850Z,3.88
2022-10-05T22:28:49.718Z,3.53
2022-10-05T22:31:20.737Z,3.97
2022-10-05T22:33:50.304Z,3.65
2022-10-05T22:36:19.910Z,3.63
2022-10-05T22:38:52.218Z,4.45
2022-10-05T22:41:21.782Z,3.75
2022-10-05T22:43:52.024Z,3.90
2022-10-05T22:46:21.803Z,4.15
2022-10-05T22:48:51.367Z,3.97
2022-10-05T22:51:20.890Z,4.47
2022-10-05T22:53:52.961Z,4.30
2022-10-05T22:56:22.559Z,3.72
2022-10-05T22:58:52.670Z,3.85
2022-10-05T23:01:22.447Z,3.92
2022-10-05T23:03:51.886Z,4.10
2022-10-05T23:06:24.051Z,3.35
2022-10-05T23:08:56.463Z,3.55
2022-10-05T23:11:26.658Z,4.10
2022-10-05T23:13:57.074Z,3.92
2022-10-05T23:16:28.050Z,4.53
2022-10-05T23:18:58.473Z,4.50
2022-10-05T23:21:29.917Z,3.90
2022-10-05T23:24:01.961Z,3.70
2022-10-05T23:26:31.539Z,4.35
2022-10-05T23:29:00.972Z,4.18
2022-10-05T23:31:33.628Z,3.38
2022-10-05T23:34:03.292Z,3.83
2022-10-05T23:36:33.951Z,3.95
2022-10-05T23:39:06.113Z,3.50
2022-10-05T23:41:35.981Z,3.75
2022-10-05T23:44:05.482Z,4.10
2022-10-05T23:46:34.994Z,3.72
2022-10-05T23:49:04.465Z,4.47
2022-10-05T23:51:33.922Z,3.78
2022-10-05T23:54:06.152Z,3.65
2022-10-05T23:56:35.755Z,4.10
2022-10-05T23:59:05.261Z,4.05
